Time;durP1;ratioP1;P1;durP2;ratioP2;P2;SDS_P1;SDS_P2;PMS_P1;PMS_P2;Temp;Humidity;BMP_temperature;BMP_pressure;BME280_temperature;BME280_humidity;BME280_pressure;Samples;Min_cycle;Max_cycle;Signal;HPM_P1;HPM_P2
2021/03/07 00:01:14;;;;;;;23.93;12.00;;;-1.40;99.90;;;;;;5089103;28;20651;-63
2021/03/07 00:03:43;;;;;;;26.23;13.13;;;-1.40;99.90;;;;;;5072071;28;20731;-62
2021/03/07 00:06:11;;;;;;;26.03;14.23;;;-1.50;99.90;;;;;;5057939;28;20248;-63
2021/03/07 00:08:38;;;;;;;28.80;13.03;;;-1.50;99.90;;;;;;5073047;28;20200;-63
2021/03/07 00:11:20;;;;;;;25.63;14.63;;;-1.50;99.90;;;;;;5077570;28;20199;-63
2021/03/07 00:13:49;;;;;;;23.40;13.73;;;-1.50;99.90;;;;;;5071249;28;20223;-63
2021/03/07 00:16:16;;;;;;;26.27;14.30;;;-1.50;99.90;;;;;;5074919;28;20398;-63
2021/03/07 00:18:44;;;;;;;31.17;14.73;;;-1.60;99.90;;;;;;5070419;28;20279;-62
2021/03/07 00:21:11;;;;;;;34.90;16.77;;;-1.60;99.90;;;;;;5070533;28;20303;-63
2021/03/07 00:23:39;;;;;;;32.03;16.37;;;-1.60;99.90;;;;;;5080128;28;20274;-63
2021/03/07 00:26:09;;;;;;;33.70;16.00;;;-1.60;99.90;;;;;;5078645;28;20202;-63
2021/03/07 00:28:36;;;;;;;28.73;15.50;;;-1.60;99.90;;;;;;5077587;28;20192;-63
2021/03/07 00:31:05;;;;;;;29.33;15.57;;;-1.70;99.90;;;;;;5065743;28;20222;-63
2021/03/07 00:33:32;;;;;;;25.63;15.17;;;-1.70;99.90;;;;;;5070735;28;20192;-63
2021/03/07 00:36:00;;;;;;;29.70;15.77;;;-1.70;99.90;;;;;;5080789;28;20204;-63
2021/03/07 00:38:28;;;;;;;27.07;14.80;;;-1.70;99.90;;;;;;5071787;28;20257;-63
2021/03/07 00:40:55;;;;;;;29.20;16.03;;;-1.70;99.90;;;;;;5069313;28;20295;-63
2021/03/07 00:43:23;;;;;;;30.30;15.33;;;-1.70;99.90;;;;;;5076813;28;20196;-63
2021/03/07 00:45:52;;;;;;;25.07;15.07;;;-1.70;99.90;;;;;;5053720;28;20750;-63
2021/03/07 00:48:22;;;;;;;28.10;14.80;;;-1.70;99.90;;;;;;5070934;28;20184;-63
2021/03/07 00:50:50;;;;;;;28.23;15.97;;;-1.80;99.90;;;;;;5067926;28;20196;-62
2021/03/07 00:53:17;;;;;;;28.13;14.70;;;-1.80;99.90;;;;;;5086147;28;20279;-62
2021/03/07 00:55:44;;;;;;;33.20;15.90;;;-1.80;99.90;;;;;;5074533;28;20238;-63
2021/03/07 00:58:12;;;;;;;30.90;15.27;;;-1.80;99.90;;;;;;5066374;28;20279;-62
2021/03/07 01:00:41;;;;;;;25.97;14.90;;;-1.90;99.90;;;;;;5070273;28;20649;-63
2021/03/07 01:03:08;;;;;;;28.10;15.43;;;-1.90;99.90;;;;;;5067297;28;20282;-63
2021/03/07 01:05:37;;;;;;;22.93;14.03;;;-1.90;99.90;;;;;;5077993;28;20218;-63
2021/03/07 01:08:04;;;;;;;35.23;15.83;;;-2.00;99.90;;;;;;5080438;28;20203;-63
2021/03/07 01:10:39;;;;;;;25.80;14.73;;;-2.00;99.90;;;;;;5053168;28;20199;-63
2021/03/07 01:13:09;;;;;;;24.80;15.53;;;-2.00;99.90;;;;;;5076354;28;20233;-62
2021/03/07 01:15:36;;;;;;;27.17;15.80;;;-2.10;99.90;;;;;;5051645;28;20224;-63
2021/03/07 01:18:05;;;;;;;26.17;15.23;;;-2.10;99.90;;;;;;5072600;28;20662;-63
2021/03/07 01:20:35;;;;;;;29.77;15.93;;;-2.20;99.90;;;;;;5074763;28;20203;-63
2021/03/07 01:23:03;;;;;;;33.60;15.83;;;-2.20;99.90;;;;;;5068118;28;20275;-63
2021/03/07 01:25:32;;;;;;;27.93;15.47;;;-2.20;99.90;;;;;;5053733;28;20200;-62
2021/03/07 01:28:01;;;;;;;32.73;15.87;;;-2.20;99.90;;;;;;5053832;28;20296;-63
2021/03/07 01:30:29;;;;;;;31.60;15.87;;;-2.20;99.90;;;;;;5073614;28;20618;-62
2021/03/07 01:32:57;;;;;;;26.83;16.07;;;-2.20;99.90;;;;;;5073587;28;20278;-62
2021/03/07 01:35:25;;;;;;;29.90;15.17;;;-2.20;99.90;;;;;;5066946;28;20204;-63
2021/03/07 01:37:53;;;;;;;32.73;15.30;;;-2.20;99.90;;;;;;5051885;28;20658;-63
2021/03/07 01:40:24;;;;;;;25.43;15.20;;;-2.30;99.90;;;;;;5056441;28;20223;-62
2021/03/07 01:42:53;;;;;;;24.23;14.90;;;-2.30;99.90;;;;;;5082755;28;20791;-62
2021/03/07 01:45:25;;;;;;;30.20;15.67;;;-2.30;99.90;;;;;;5068437;28;20188;-62
2021/03/07 01:47:55;;;;;;;29.47;15.93;;;-2.30;99.90;;;;;;5068428;28;20215;-63
2021/03/07 01:50:27;;;;;;;30.53;16.47;;;-2.40;99.90;;;;;;5067767;28;20211;-62
2021/03/07 01:52:54;;;;;;;27.17;14.70;;;-2.40;99.90;;;;;;5070806;28;20257;-62
2021/03/07 01:55:28;;;;;;;24.43;15.30;;;-2.40;99.90;;;;;;5077068;28;20294;-62
2021/03/07 01:58:04;;;;;;;24.43;14.83;;;-2.40;99.90;;;;;;5075181;28;20286;-62
2021/03/07 02:00:33;;;;;;;26.97;15.43;;;-2.40;99.90;;;;;;5065634;28;20234;-63
2021/03/07 02:03:01;;;;;;;28.47;14.67;;;-2.40;99.90;;;;;;5070832;28;20317;-62
2021/03/07 02:05:29;;;;;;;27.37;15.60;;;-2.50;99.90;;;;;;5073763;28;20223;-63
2021/03/07 02:08:00;;;;;;;33.30;15.40;;;-2.50;99.90;;;;;;5062744;28;20776;-63
2021/03/07 02:10:32;;;;;;;28.57;15.17;;;-2.50;99.90;;;;;;5067730;28;20285;-63
2021/03/07 02:13:02;;;;;;;24.33;14.50;;;-2.50;99.90;;;;;;5076375;28;20203;-63
2021/03/07 02:15:32;;;;;;;29.57;15.37;;;-2.60;99.90;;;;;;5069283;28;20263;-63
2021/03/07 02:18:01;;;;;;;24.47;14.13;;;-2.60;99.90;;;;;;5071072;28;20205;-62
2021/03/07 02:20:31;;;;;;;27.37;14.30;;;-2.60;99.90;;;;;;5069825;28;20200;-62
2021/03/07 02:23:06;;;;;;;25.33;14.40;;;-2.70;99.90;;;;;;5076513;28;20226;-63
2021/03/07 02:25:35;;;;;;;27.47;14.63;;;-2.70;99.90;;;;;;5072890;28;20682;-62
2021/03/07 02:28:08;;;;;;;30.30;15.30;;;-2.70;99.90;;;;;;5068532;28;20198;-63
2021/03/07 02:30:37;;;;;;;31.27;15.40;;;-2.70;99.90;;;;;;5068263;28;20192;-62
2021/03/07 02:33:13;;;;;;;28.00;14.93;;;-2.70;99.90;;;;;;5071806;28;20192;-62
2021/03/07 02:35:54;;;;;;;26.40;14.93;;;-2.70;99.90;;;;;;5067591;28;20220;-62
2021/03/07 02:38:24;;;;;;;27.60;14.67;;;-2.80;99.90;;;;;;5071997;28;20179;-62
2021/03/07 02:40:56;;;;;;;24.77;15.07;;;-2.80;99.90;;;;;;5068297;28;20199;-63
2021/03/07 02:43:25;;;;;;;26.47;14.43;;;-2.80;99.90;;;;;;5069355;28;20257;-62
2021/03/07 02:45:56;;;;;;;25.67;14.73;;;-2.80;99.90;;;;;;5067018;28;20238;-62
2021/03/07 02:48:27;;;;;;;28.83;14.73;;;-2.90;99.90;;;;;;5067609;28;20605;-62
2021/03/07 02:50:57;;;;;;;29.87;14.20;;;-2.90;99.90;;;;;;5068295;28;20196;-62
2021/03/07 02:53:28;;;;;;;39.27;15.77;;;-3.00;99.90;;;;;;5074275;28;20615;-63
2021/03/07 02:55:59;;;;;;;32.47;15.77;;;-3.00;99.90;;;;;;5068821;28;20212;-63
2021/03/07 02:58:27;;;;;;;28.83;16.37;;;-3.00;99.90;;;;;;5070192;28;20284;-63
2021/03/07 03:00:58;;;;;;;32.33;16.53;;;-3.00;99.90;;;;;;5065476;28;20253;-63
2021/03/07 03:03:29;;;;;;;25.97;15.37;;;-3.00;99.90;;;;;;5067913;28;20200;-63
2021/03/07 03:05:59;;;;;;;32.00;15.90;;;-3.00;99.90;;;;;;5069043;28;20183;-63
2021/03/07 03:08:29;;;;;;;26.57;15.53;;;-3.10;99.90;;;;;;5066367;28;20227;-62
2021/03/07 03:10:58;;;;;;;28.13;16.07;;;-3.20;99.90;;;;;;5066317;28;20196;-63
2021/03/07 03:13:32;;;;;;;30.03;15.50;;;-3.20;99.90;;;;;;5065592;28;20294;-63
2021/03/07 03:16:02;;;;;;;26.93;15.83;;;-3.20;99.90;;;;;;5062589;28;20625;-62
2021/03/07 03:18:31;;;;;;;29.93;16.20;;;-3.20;99.90;;;;;;5068609;28;20207;-62
2021/03/07 03:21:00;;;;;;;32.27;16.53;;;-3.30;99.90;;;;;;5071772;28;20617;-63
2021/03/07 03:23:30;;;;;;;37.80;16.53;;;-3.30;99.90;;;;;;5074884;28;20192;-63
2021/03/07 03:25:59;;;;;;;33.70;16.17;;;-3.30;99.90;;;;;;5065894;28;20220;-63
2021/03/07 03:28:26;;;;;;;33.63;15.97;;;-3.30;99.90;;;;;;5071988;28;20193;-63
2021/03/07 03:30:55;;;;;;;30.33;16.43;;;-3.30;99.90;;;;;;5061980;28;20203;-63
2021/03/07 03:33:23;;;;;;;31.10;17.23;;;-3.30;99.90;;;;;;5083809;28;20382;-63
2021/03/07 03:35:56;;;;;;;35.97;16.97;;;-3.40;99.90;;;;;;5071893;28;20689;-63
2021/03/07 03:38:32;;;;;;;27.50;15.83;;;-3.40;99.90;;;;;;5071275;28;20203;-63
2021/03/07 03:41:03;;;;;;;27.67;16.93;;;-3.40;99.90;;;;;;5065367;28;20275;-63
2021/03/07 03:43:51;;;;;;;27.63;16.63;;;-3.30;99.90;;;;;;5063397;28;20188;-62
2021/03/07 03:46:19;;;;;;;30.43;16.60;;;-3.30;99.90;;;;;;5065920;28;20655;-63
2021/03/07 03:48:51;;;;;;;30.20;16.40;;;-3.30;99.90;;;;;;5070417;28;20658;-63
2021/03/07 03:51:25;;;;;;;31.10;16.73;;;-3.40;99.90;;;;;;5067296;28;20215;-63
2021/03/07 03:53:55;;;;;;;34.50;16.20;;;-3.40;99.90;;;;;;5064193;28;20228;-63
2021/03/07 03:56:25;;;;;;;34.90;15.73;;;-3.40;99.90;;;;;;5069882;28;20307;-63
2021/03/07 03:58:55;;;;;;;28.73;15.13;;;-3.40;99.90;;;;;;5073374;28;20246;-63
2021/03/07 04:01:24;;;;;;;26.10;14.70;;;-3.50;99.90;;;;;;5064073;28;20224;-63
2021/03/07 04:03:54;;;;;;;28.33;15.60;;;-3.50;99.90;;;;;;5077581;28;20188;-63
2021/03/07 04:06:24;;;;;;;31.03;15.27;;;-3.60;99.90;;;;;;5067554;28;20618;-63
2021/03/07 04:08:53;;;;;;;27.03;15.70;;;-3.60;99.90;;;;;;5068133;28;20208;-63
2021/03/07 04:11:21;;;;;;;27.40;16.07;;;-3.60;99.90;;;;;;5064350;28;20196;-63
2021/03/07 04:13:51;;;;;;;27.73;14.70;;;-3.60;99.90;;;;;;5064628;28;20267;-63
2021/03/07 04:16:19;;;;;;;26.47;15.87;;;-3.60;99.90;;;;;;5070867;28;20287;-63
2021/03/07 04:18:47;;;;;;;28.03;14.73;;;-3.60;99.90;;;;;;5067265;28;20193;-63
2021/03/07 04:21:16;;;;;;;23.63;14.77;;;-3.70;99.90;;;;;;5067388;28;20201;-63
2021/03/07 04:23:44;;;;;;;30.80;15.03;;;-3.70;99.90;;;;;;5065970;28;20283;-63
2021/03/07 04:26:12;;;;;;;30.97;14.97;;;-3.70;99.90;;;;;;5071516;28;20261;-63
2021/03/07 04:28:42;;;;;;;29.70;15.33;;;-3.70;99.90;;;;;;5088599;28;20252;-63
2021/03/07 04:31:10;;;;;;;28.60;15.27;;;-3.70;99.90;;;;;;5068926;28;20188;-63
2021/03/07 04:33:38;;;;;;;25.87;15.53;;;-3.60;99.90;;;;;;5070545;28;20192;-63
2021/03/07 04:36:06;;;;;;;28.50;15.57;;;-3.60;99.90;;;;;;5083876;28;20240;-63
2021/03/07 04:38:34;;;;;;;31.47;17.63;;;-3.50;99.90;;;;;;5069674;28;20231;-63
2021/03/07 04:41:02;;;;;;;29.97;16.63;;;-3.50;99.90;;;;;;5071886;28;20271;-63
2021/03/07 04:43:41;;;;;;;28.93;14.80;;;-3.50;99.90;;;;;;5067035;28;20291;-63
2021/03/07 04:46:10;;;;;;;30.77;15.60;;;-3.50;99.90;;;;;;5069373;28;20283;-63
2021/03/07 04:48:38;;;;;;;27.43;15.23;;;-3.50;99.90;;;;;;5077830;28;20193;-63
2021/03/07 04:51:08;;;;;;;26.80;15.17;;;-3.60;99.90;;;;;;5071759;28;20192;-63
2021/03/07 04:53:35;;;;;;;29.90;16.57;;;-3.60;99.90;;;;;;5069679;28;20204;-63
2021/03/07 04:56:04;;;;;;;32.83;16.13;;;-3.60;99.90;;;;;;5070391;28;20682;-63
2021/03/07 04:58:31;;;;;;;27.70;15.20;;;-3.70;99.90;;;;;;5058063;28;20291;-63
2021/03/07 05:00:58;;;;;;;31.77;15.53;;;-3.70;99.90;;;;;;5075715;28;20192;-63
2021/03/07 05:03:27;;;;;;;35.77;17.40;;;-3.70;99.90;;;;;;5070884;28;20204;-63
2021/03/07 05:05:54;;;;;;;32.60;17.40;;;-3.60;99.90;;;;;;5072083;28;20302;-63
2021/03/07 05:08:22;;;;;;;37.30;18.17;;;-3.50;99.90;;;;;;5070188;28;20219;-63
2021/03/07 05:10:49;;;;;;;39.90;19.20;;;-3.50;99.90;;;;;;5070022;28;20283;-63
2021/03/07 05:13:16;;;;;;;31.67;18.03;;;-3.40;99.90;;;;;;5069919;28;20681;-63
2021/03/07 05:15:45;;;;;;;32.27;18.80;;;-3.50;99.90;;;;;;5068313;28;20210;-63
2021/03/07 05:18:14;;;;;;;32.77;18.70;;;-3.50;99.90;;;;;;5069131;28;20204;-64
2021/03/07 05:20:42;;;;;;;33.30;17.97;;;-3.50;99.90;;;;;;5072684;28;20192;-63
2021/03/07 05:23:09;;;;;;;37.83;18.20;;;-3.50;99.90;;;;;;5074199;28;20284;-63
2021/03/07 05:25:38;;;;;;;32.83;18.13;;;-3.50;99.90;;;;;;5079730;28;20668;-63
2021/03/07 05:28:05;;;;;;;35.17;18.20;;;-3.50;99.90;;;;;;5069367;28;20220;-63
2021/03/07 05:30:36;;;;;;;31.07;17.30;;;-3.60;99.90;;;;;;5070784;28;20231;-63
2021/03/07 05:33:04;;;;;;;43.40;18.20;;;-3.60;99.90;;;;;;5076488;28;20283;-63
2021/03/07 05:35:34;;;;;;;29.47;17.47;;;-3.60;99.90;;;;;;5071962;28;20202;-63
2021/03/07 05:38:02;;;;;;;33.13;17.57;;;-3.60;99.90;;;;;;5070346;28;20315;-63
2021/03/07 05:40:31;;;;;;;31.73;17.83;;;-3.60;99.90;;;;;;5068050;28;20196;-63
2021/03/07 05:42:59;;;;;;;34.17;17.47;;;-3.60;99.90;;;;;;5069231;28;20287;-63
2021/03/07 05:45:27;;;;;;;31.80;16.23;;;-3.60;99.90;;;;;;5069365;28;20303;-63
2021/03/07 05:47:55;;;;;;;32.67;16.73;;;-3.60;99.90;;;;;;5072364;28;20184;-63
2021/03/07 05:50:25;;;;;;;31.43;17.07;;;-3.60;99.90;;;;;;5073071;28;20679;-63
2021/03/07 05:52:54;;;;;;;29.67;16.47;;;-3.60;99.90;;;;;;5074140;28;20241;-63
2021/03/07 05:55:23;;;;;;;29.43;16.83;;;-3.70;99.90;;;;;;5075363;28;20750;-63
2021/03/07 05:57:56;;;;;;;32.53;16.43;;;-3.70;99.90;;;;;;5073732;28;20307;-63
2021/03/07 06:00:27;;;;;;;31.70;16.97;;;-3.70;99.90;;;;;;5076053;28;20273;-63
2021/03/07 06:02:55;;;;;;;34.77;16.50;;;-3.70;99.90;;;;;;5074725;28;20272;-63
2021/03/07 06:05:23;;;;;;;31.37;16.67;;;-3.80;99.90;;;;;;5076897;28;20207;-63
2021/03/07 06:07:51;;;;;;;36.03;16.77;;;-3.80;99.90;;;;;;5067638;28;20279;-63
2021/03/07 06:10:19;;;;;;;28.17;16.87;;;-3.80;99.90;;;;;;5066975;28;20188;-63
2021/03/07 06:12:58;;;;;;;28.33;16.03;;;-3.80;99.90;;;;;;5061856;28;20203;-63
2021/03/07 06:15:44;;;;;;;39.97;17.03;;;-3.80;99.90;;;;;;5058613;28;20195;-63
2021/03/07 06:18:16;;;;;;;33.00;17.83;;;-3.80;99.90;;;;;;5068672;28;20193;-63
2021/03/07 06:20:44;;;;;;;35.07;18.37;;;-3.80;99.90;;;;;;5069654;28;20196;-63
2021/03/07 06:23:12;;;;;;;34.33;17.30;;;-3.80;99.90;;;;;;5067598;28;20543;-63
2021/03/07 06:25:48;;;;;;;36.43;18.70;;;-3.80;99.90;;;;;;5067268;28;20192;-64
2021/03/07 06:28:22;;;;;;;32.33;19.03;;;-3.70;99.90;;;;;;5068733;28;20223;-63
2021/03/07 06:30:50;;;;;;;31.37;18.17;;;-3.70;99.90;;;;;;5064905;28;20283;-63
2021/03/07 06:33:32;;;;;;;30.10;17.57;;;-3.70;99.90;;;;;;5068156;28;20256;-63
2021/03/07 06:36:15;;;;;;;39.07;18.17;;;-3.70;99.90;;;;;;5070974;28;20199;-63
2021/03/07 06:38:47;;;;;;;33.53;17.67;;;-3.70;99.90;;;;;;5066177;28;20584;-63
2021/03/07 06:41:15;;;;;;;34.20;17.93;;;-3.70;99.90;;;;;;5065875;28;20573;-63
2021/03/07 06:43:44;;;;;;;33.07;17.73;;;-3.70;99.90;;;;;;5072802;28;20279;-63
2021/03/07 06:46:29;;;;;;;32.53;18.03;;;-3.60;99.90;;;;;;5080090;28;20271;-63
2021/03/07 06:48:56;;;;;;;32.10;17.60;;;-3.50;99.90;;;;;;5078242;28;20191;-63
2021/03/07 06:51:29;;;;;;;35.90;19.40;;;-3.50;99.90;;;;;;5071095;28;20231;-63
2021/03/07 06:53:57;;;;;;;38.00;18.60;;;-3.40;99.90;;;;;;5066874;28;20203;-63
2021/03/07 06:56:42;;;;;;;34.23;19.10;;;-3.40;99.90;;;;;;5074324;28;20311;-64
2021/03/07 06:59:12;;;;;;;33.27;19.00;;;-3.30;99.90;;;;;;5068569;28;20294;-63
2021/03/07 07:01:40;;;;;;;44.83;20.27;;;-3.20;99.90;;;;;;5067060;28;20696;-64
2021/03/07 07:04:08;;;;;;;35.50;19.27;;;-3.20;99.90;;;;;;5067306;28;20224;-63
2021/03/07 07:06:38;;;;;;;41.77;20.77;;;-3.10;99.90;;;;;;5077454;28;20279;-63
2021/03/07 07:09:07;;;;;;;38.00;20.80;;;-3.10;99.90;;;;;;5073101;28;20312;-63
2021/03/07 07:11:45;;;;;;;36.50;21.60;;;-3.00;99.90;;;;;;5060420;28;20202;-64
2021/03/07 07:14:27;;;;;;;44.27;23.50;;;-2.90;99.90;;;;;;5066338;28;20756;-63
2021/03/07 07:16:55;;;;;;;42.40;22.53;;;-2.90;99.90;;;;;;5067164;28;20208;-63
2021/03/07 07:19:24;;;;;;;42.67;21.37;;;-2.80;99.90;;;;;;5068218;28;20227;-63
2021/03/07 07:21:51;;;;;;;36.23;21.03;;;-2.70;99.90;;;;;;5068199;28;20253;-63
2021/03/07 07:24:19;;;;;;;43.77;21.97;;;-2.70;99.90;;;;;;5067841;28;20188;-64
2021/03/07 07:26:47;;;;;;;42.23;22.97;;;-2.60;99.90;;;;;;5068138;28;20587;-63
2021/03/07 07:29:17;;;;;;;42.93;22.33;;;-2.50;99.90;;;;;;5075512;28;20203;-63
2021/03/07 07:31:49;;;;;;;44.43;23.03;;;-2.40;99.90;;;;;;5063361;28;20247;-63
2021/03/07 07:34:21;;;;;;;50.60;25.80;;;-2.20;99.90;;;;;;5077391;28;20196;-63
2021/03/07 07:36:54;;;;;;;52.03;27.07;;;-2.00;99.90;;;;;;5071188;28;20303;-63
2021/03/07 07:39:26;;;;;;;52.73;28.93;;;-1.50;99.90;;;;;;5067901;28;20231;-64
2021/03/07 07:41:55;;;;;;;57.37;30.37;;;-1.00;99.90;;;;;;5067069;28;20558;-63
2021/03/07 07:44:31;;;;;;;49.37;27.80;;;-0.50;99.90;;;;;;5067770;28;20230;-64
2021/03/07 07:47:02;;;;;;;47.57;26.40;;;0.00;99.90;;;;;;5066171;28;20191;-64
2021/03/07 07:49:44;;;;;;;43.83;23.60;;;0.40;99.90;;;;;;5066279;28;20191;-63
2021/03/07 07:52:48;;;;;;;33.60;20.80;;;0.90;99.90;;;;;;5070966;28;20663;-64
2021/03/07 07:55:16;;;;;;;29.30;17.80;;;1.40;99.90;;;;;;5066839;28;20701;-63
2021/03/07 07:57:47;;;;;;;31.30;17.90;;;1.70;99.90;;;;;;5069490;28;20212;-63
2021/03/07 08:00:22;;;;;;;37.90;19.43;;;2.10;99.90;;;;;;5061020;28;20188;-63
2021/03/07 08:02:56;;;;;;;34.30;18.77;;;2.50;99.90;;;;;;5072406;28;20323;-63
2021/03/07 08:05:45;;;;;;;30.17;16.70;;;2.80;99.90;;;;;;5077625;28;20677;-63
2021/03/07 08:08:14;;;;;;;26.63;15.73;;;3.10;99.90;;;;;;5071324;28;20180;-63
2021/03/07 08:10:44;;;;;;;23.50;16.53;;;3.30;99.90;;;;;;5067827;28;20195;-63
2021/03/07 08:13:13;;;;;;;23.30;15.90;;;3.60;99.90;;;;;;5071264;28;20702;-64
2021/03/07 08:15:51;;;;;;;21.10;13.87;;;3.90;99.90;;;;;;5073022;28;20550;-60
2021/03/07 08:18:21;;;;;;;21.13;14.37;;;4.10;99.90;;;;;;5062305;28;20812;-60
2021/03/07 08:21:03;;;;;;;26.30;14.47;;;4.30;99.90;;;;;;5069776;28;20202;-60
2021/03/07 08:23:30;;;;;;;25.13;13.30;;;4.40;99.90;;;;;;5069993;28;20288;-60
2021/03/07 08:26:02;;;;;;;18.53;13.00;;;4.50;99.90;;;;;;5070463;28;20594;-60
2021/03/07 08:28:43;;;;;;;21.33;13.70;;;4.60;99.90;;;;;;5065802;28;20287;-60
2021/03/07 08:31:33;;;;;;;21.97;13.47;;;5.00;99.90;;;;;;5068023;28;20739;-63
2021/03/07 08:34:22;;;;;;;21.43;13.93;;;5.10;99.90;;;;;;5067534;28;20192;-63
2021/03/07 08:37:02;;;;;;;20.40;13.40;;;5.00;99.90;;;;;;5065546;28;20344;-63
2021/03/07 08:39:30;;;;;;;21.27;13.13;;;5.20;99.90;;;;;;5066250;28;20223;-60
2021/03/07 08:42:04;;;;;;;22.43;13.60;;;5.20;99.90;;;;;;5065404;28;20609;-60
2021/03/07 08:44:32;;;;;;;18.83;12.63;;;5.20;99.90;;;;;;5062789;28;20268;-61
2021/03/07 08:47:01;;;;;;;17.53;13.10;;;5.40;99.90;;;;;;5067351;28;20190;-60
2021/03/07 08:49:31;;;;;;;21.17;12.63;;;5.30;99.90;;;;;;5067314;28;20278;-60
2021/03/07 08:52:06;;;;;;;15.80;12.33;;;5.30;99.90;;;;;;5068231;28;20565;-60
2021/03/07 08:54:35;;;;;;;19.77;12.43;;;5.50;99.90;;;;;;5071209;28;20327;-60
2021/03/07 08:57:10;;;;;;;21.10;13.07;;;5.80;99.90;;;;;;5063340;28;20214;-61
2021/03/07 08:59:37;;;;;;;18.83;12.33;;;6.20;99.90;;;;;;5063299;28;20259;-61
2021/03/07 09:02:06;;;;;;;18.73;12.43;;;6.30;99.90;;;;;;5069201;28;20227;-61
2021/03/07 09:04:38;;;;;;;18.37;12.30;;;6.40;99.90;;;;;;5045363;28;20268;-61
2021/03/07 09:07:06;;;;;;;16.73;12.50;;;6.60;99.90;;;;;;5061537;28;20195;-61
2021/03/07 09:09:35;;;;;;;15.60;11.73;;;6.60;99.90;;;;;;5063319;28;20287;-61
2021/03/07 09:12:05;;;;;;;13.70;10.57;;;6.90;99.90;;;;;;5062880;28;20192;-61
2021/03/07 09:14:34;;;;;;;14.50;11.10;;;7.20;99.90;;;;;;5061535;28;20256;-61
2021/03/07 09:17:04;;;;;;;13.93;11.23;;;7.50;99.90;;;;;;5065779;28;20780;-60
2021/03/07 09:19:37;;;;;;;18.13;11.47;;;7.60;99.90;;;;;;5063565;28;20200;-60
2021/03/07 09:22:13;;;;;;;13.20;10.73;;;7.70;99.90;;;;;;5066315;28;20570;-61
2021/03/07 09:24:49;;;;;;;18.50;11.57;;;7.50;99.90;;;;;;5067851;28;20200;-61
2021/03/07 09:27:21;;;;;;;16.73;12.10;;;7.70;99.90;;;;;;5066818;28;20191;-60
2021/03/07 09:30:09;;;;;;;14.87;11.80;;;8.00;99.90;;;;;;5071845;28;20200;-60
2021/03/07 09:32:39;;;;;;;14.63;10.47;;;8.20;99.90;;;;;;5057786;28;20223;-61
2021/03/07 09:35:19;;;;;;;13.57;10.40;;;8.60;99.90;;;;;;5068431;28;20241;-61
2021/03/07 09:37:54;;;;;;;10.57;9.37;;;8.60;99.90;;;;;;5064919;28;20777;-61
2021/03/07 09:40:22;;;;;;;15.33;9.63;;;8.60;99.90;;;;;;5064501;28;20191;-61
2021/03/07 09:42:55;;;;;;;15.73;9.90;;;8.70;99.90;;;;;;5065406;28;20293;-60
2021/03/07 09:45:23;;;;;;;13.80;10.10;;;8.50;99.90;;;;;;5072463;28;20706;-61
2021/03/07 09:47:54;;;;;;;9.77;8.73;;;8.50;99.90;;;;;;5068401;28;20313;-60
2021/03/07 09:50:24;;;;;;;14.17;10.27;;;8.60;99.90;;;;;;5061137;28;20207;-61
2021/03/07 09:52:54;;;;;;;13.30;9.23;;;8.80;99.90;;;;;;5062506;28;20805;-61
2021/03/07 09:55:26;;;;;;;11.50;9.07;;;9.20;99.90;;;;;;5062413;28;20192;-61
2021/03/07 09:58:01;;;;;;;11.30;9.70;;;9.60;99.90;;;;;;5076220;28;20215;-61
2021/03/07 10:00:29;;;;;;;14.33;9.53;;;10.10;99.90;;;;;;5067851;28;20199;-61
2021/03/07 10:02:57;;;;;;;13.83;9.77;;;10.30;99.90;;;;;;5070609;28;20983;-63
2021/03/07 10:05:26;;;;;;;14.60;9.00;;;10.40;99.90;;;;;;5066411;28;20639;-61
2021/03/07 10:07:54;;;;;;;12.57;9.40;;;10.00;99.90;;;;;;5066846;28;20303;-60
2021/03/07 10:10:23;;;;;;;14.60;10.57;;;9.50;99.90;;;;;;5066800;28;20219;-60
2021/03/07 10:12:54;;;;;;;13.13;10.63;;;9.10;99.90;;;;;;5055924;28;20195;-60
2021/03/07 10:15:27;;;;;;;15.80;10.53;;;8.40;99.90;;;;;;5070380;28;20220;-59
2021/03/07 10:17:59;;;;;;;17.57;9.40;;;9.10;99.90;;;;;;5066047;28;20226;-60
2021/03/07 10:20:34;;;;;;;13.60;9.20;;;10.00;99.90;;;;;;5070085;28;20215;-60
2021/03/07 10:23:01;;;;;;;9.17;7.93;;;9.60;99.90;;;;;;5068931;28;20230;-60
2021/03/07 10:25:31;;;;;;;14.33;9.17;;;8.90;99.90;;;;;;5063542;28;20339;-62
2021/03/07 10:28:02;;;;;;;9.67;8.67;;;8.20;99.90;;;;;;5064716;28;20264;-62
2021/03/07 10:30:33;;;;;;;13.33;10.40;;;7.80;99.90;;;;;;5065850;28;20309;-62
2021/03/07 10:33:17;;;;;;;9.80;8.83;;;7.00;99.90;;;;;;5067324;28;20219;-62
2021/03/07 10:36:20;;;;;;;8.93;7.83;;;6.90;99.90;;;;;;5065642;28;20200;-62
2021/03/07 10:38:52;;;;;;;8.90;7.40;;;7.00;99.90;;;;;;5063327;28;20211;-62
2021/03/07 10:41:22;;;;;;;9.37;8.23;;;6.80;99.90;;;;;;5058988;28;20207;-62
2021/03/07 10:43:49;;;;;;;8.50;7.47;;;6.70;99.90;;;;;;5057418;28;20219;-62
2021/03/07 10:46:25;;;;;;;12.83;8.30;;;6.60;99.90;;;;;;5058275;28;20224;-62
2021/03/07 10:48:56;;;;;;;8.23;6.83;;;7.20;99.90;;;;;;5057767;28;20701;-62
2021/03/07 10:51:24;;;;;;;10.10;8.07;;;8.10;99.90;;;;;;5053193;28;20195;-62
2021/03/07 10:53:55;;;;;;;12.43;7.30;;;8.70;99.90;;;;;;5056307;28;20203;-62
2021/03/07 10:56:28;;;;;;;7.83;7.17;;;9.60;99.90;;;;;;5060760;28;20651;-62
2021/03/07 10:58:55;;;;;;;10.93;7.90;;;9.90;99.90;;;;;;5062244;28;20208;-62
2021/03/07 11:01:24;;;;;;;11.57;7.50;;;9.70;99.90;;;;;;5058496;28;20196;-62
2021/03/07 11:03:54;;;;;;;9.50;8.60;;;9.60;99.90;;;;;;5059827;28;20208;-62
2021/03/07 11:06:21;;;;;;;11.97;9.13;;;9.40;99.90;;;;;;5057928;28;20196;-62
2021/03/07 11:08:53;;;;;;;9.93;8.93;;;8.80;99.90;;;;;;5060547;28;20196;-62
2021/03/07 11:11:21;;;;;;;9.70;8.60;;;8.40;99.90;;;;;;5068829;28;20287;-62
2021/03/07 11:13:48;;;;;;;12.30;8.00;;;8.20;99.90;;;;;;5061334;28;20713;-62
2021/03/07 11:16:21;;;;;;;7.87;6.97;;;7.70;99.90;;;;;;5061672;28;20211;-61
2021/03/07 11:18:48;;;;;;;7.00;6.30;;;8.10;99.90;;;;;;5064938;28;20303;-62
2021/03/07 11:21:17;;;;;;;8.60;6.57;;;9.10;99.90;;;;;;5067813;28;20206;-62
2021/03/07 11:23:44;;;;;;;7.13;6.40;;;10.10;99.90;;;;;;5065506;28;20196;-62
2021/03/07 11:26:12;;;;;;;7.47;6.67;;;10.70;99.90;;;;;;5057159;28;20196;-62
2021/03/07 11:28:40;;;;;;;10.07;6.57;;;10.30;99.90;;;;;;5063474;28;20187;-61
2021/03/07 11:31:07;;;;;;;6.53;6.00;;;9.40;99.90;;;;;;5063313;28;20287;-62
2021/03/07 11:33:42;;;;;;;7.30;6.60;;;9.90;99.90;;;;;;5064488;28;20365;-62
2021/03/07 11:36:11;;;;;;;7.20;6.50;;;10.10;99.90;;;;;;5068646;28;20200;-62
2021/03/07 11:38:39;;;;;;;8.67;6.97;;;10.50;99.90;;;;;;5063625;28;20241;-62
2021/03/07 11:41:06;;;;;;;9.60;7.43;;;10.80;99.90;;;;;;5067471;28;20291;-62
2021/03/07 11:43:36;;;;;;;8.90;7.50;;;10.40;99.90;;;;;;5067216;28;20245;-62
2021/03/07 11:46:04;;;;;;;9.37;7.50;;;11.20;99.90;;;;;;5066041;28;20195;-62
2021/03/07 11:48:31;;;;;;;7.40;6.80;;;10.90;99.90;;;;;;5061528;28;20210;-63
2021/03/07 11:51:02;;;;;;;6.40;5.87;;;11.10;99.90;;;;;;5058398;28;20237;-62
2021/03/07 11:53:29;;;;;;;6.50;5.97;;;11.40;99.90;;;;;;5068606;28;20303;-62
2021/03/07 11:55:58;;;;;;;6.60;6.00;;;11.70;99.90;;;;;;5060732;28;20237;-62
2021/03/07 11:58:25;;;;;;;6.30;5.80;;;12.20;99.90;;;;;;5064439;28;20234;-62
2021/03/07 12:00:52;;;;;;;7.87;6.20;;;12.70;99.90;;;;;;5066481;28;20192;-62
2021/03/07 12:03:21;;;;;;;6.47;5.90;;;12.50;99.90;;;;;;5071376;28;20226;-63
2021/03/07 12:05:48;;;;;;;7.30;6.70;;;12.20;99.90;;;;;;5069503;28;20639;-62
2021/03/07 12:08:16;;;;;;;7.33;6.73;;;11.70;99.90;;;;;;5070151;28;20661;-62
2021/03/07 12:10:43;;;;;;;7.77;7.10;;;11.10;99.90;;;;;;5068448;28;20195;-62
2021/03/07 12:13:10;;;;;;;8.43;7.63;;;10.40;99.90;;;;;;5063072;28;20573;-62
2021/03/07 12:15:38;;;;;;;8.30;7.43;;;9.70;99.90;;;;;;5065530;28;20285;-62
2021/03/07 12:18:06;;;;;;;8.63;7.40;;;10.20;99.90;;;;;;5063442;28;20904;-62
2021/03/07 12:20:35;;;;;;;8.10;7.40;;;10.90;99.90;;;;;;5072610;28;20552;-62
2021/03/07 12:23:03;;;;;;;9.13;7.67;;;11.50;99.90;;;;;;5065618;28;20712;-62
2021/03/07 12:25:31;;;;;;;7.67;7.00;;;11.70;99.90;;;;;;5060896;28;20282;-62
2021/03/07 12:27:58;;;;;;;8.77;6.87;;;12.00;99.90;;;;;;5063106;28;20223;-59
2021/03/07 12:30:26;;;;;;;7.50;6.87;;;12.00;99.90;;;;;;5061554;28;20196;-62
2021/03/07 12:32:53;;;;;;;7.60;7.00;;;11.80;99.90;;;;;;5065995;28;20287;-61
2021/03/07 12:35:22;;;;;;;8.00;7.30;;;11.50;99.90;;;;;;5065650;28;20192;-62
2021/03/07 12:37:50;;;;;;;7.30;6.57;;;11.10;99.90;;;;;;5067175;28;20222;-62
2021/03/07 12:40:20;;;;;;;8.03;7.30;;;10.80;99.90;;;;;;5070288;28;20198;-62
2021/03/07 12:42:47;;;;;;;7.40;6.80;;;10.40;99.90;;;;;;5065768;28;20192;-62
2021/03/07 12:45:17;;;;;;;6.83;6.33;;;10.60;99.90;;;;;;5063303;28;20201;-62
2021/03/07 12:47:47;;;;;;;7.20;6.60;;;11.00;99.90;;;;;;5067191;28;20299;-62
2021/03/07 12:50:27;;;;;;;7.20;6.60;;;11.10;99.90;;;;;;5060295;28;20718;-62